Montreal, Canada
Current Conditions -  °F | °C
As of 12:35 AM on Sunday 26 Oct 2014 (Local Time) from CYHU Reporting Station
Overcast Overcast  
Wind Chill: 10°   Ceiling: 9900
Heat Index: 10°   Visibility: 9mi
Dew Point:   Wind: 12mph
Humidity: 87%   Direction: 280°W
Pressure: 29.38"   Gusts: NA
Location:  45.51°N, 73.55°W
Report Text: CYHU 260435Z AUTO 28010KT 9SM FEW020 SCT060 OVC099 10/08 A2938 RMK SLP950 DENSITY ALT 100FT
Loading
Personal Weather Stations






























Interactive Weather Map
Tropical Storm Tracking
New forecast layout! Learn more

10-Day Weather Forecast

Advertisements
Track Severe Weather on mobile